Portada
METAR-TAF:

METAR-TAF

Aeroports :

Gwadar, Pakistan

latitud: 25-13-59N, longitud: 062-19-46E, altitud: 29 m

METAR: manca

Hora: 21:10 (16:10 UTC)

Pronòstic

L'informe es va fer fa 6 hores i 40 minuts, a les 09:30 UTC
Pronòstic vàlid del 06 a les 12 UTC al 07 a les 12 UTC
Vent 10 kt del Est amb ràfegues de 20 kt
Visibilitat: 4000 m
Núvols disperses a una alçada de 2000 ft
Núvols disperses a una alçada de 10000 ft
calitja
Temporalment
l' 06 a les 12 UTC al 06 a les 16 UTC
Visibilitat: 2000 m
Escasses núvols a una alçada de 2500 ft, Cumulonimbus.
Cel ennuvolat a una alçada de 3000 ft
tempesta, pluja
Evolucionant progressivament
l' 07 a les 00 UTC al 07 a les 02 UTC
Vent 10 kt del Est amb ràfegues de 20 kt
Visibilitat: 3000 m
Núvols disperses a una alçada de 2000 ft
Cel ennuvolat a una alçada de 4000 ft
calitja

TAF: OPGD 060930Z 0612/0712 09010G20KT 4000 HZ SCT020 SCT100 TEMPO 0612/0616 2000 -TSRA FEW025CB BKN030 BECMG 0700/0702 09010G20KT 3000 HZ SCT020 BKN040

Observacions i pronòstics meteorològics de més de 4000 aeroports (METAR i TAF).

Les estacions disponibles són els punts grocs i vermells al mapa.

Posi el ratolí al punt desitjat per veure el nom de l'estació.

Feu clic per veure les observacions i els pronòstics meteorològics.

Per canviar el mapa: feu clic els botons verds amb una creu de color negre per apropar; al botó verd amb un guió per allunyar la imatge; o en les fletxes verdes per a mapes adjacents.


METAR-TAF: